This is the latest recevied weather packets stored in our database for station/object YM2KRB-11. If no packets are shown the sender has not sent any weather packets the latest 1 day(s).
| Time | Temp. | Humidity | Pressure | Rain* | Wind** | Luminosity | Snow |
|---|---|---|---|---|---|---|---|
| 1777867371 | 12.22° C | 59% | 933 hPa | - | - | - | - |
| 1777866170 | 13.89° C | 60% | 933.1 hPa | - | - | - | - |
| 1777864969 | 12.22° C | 59% | 932.9 hPa | - | - | - | - |
| 1777863768 | 9.44° C | 69% | 932.8 hPa | - | - | - | - |
| 1777862567 | 13.33° C | 59% | 932.8 hPa | - | - | - | - |
| 1777861367 | 12.22° C | 62% | 932.7 hPa | - | - | - | - |
| 1777860166 | 13.33° C | 58% | 932.7 hPa | - | - | - | - |
| 1777858965 | 8.33° C | 75% | 932.8 hPa | - | - | - | - |
| 1777857764 | 8.33° C | 76% | 932.7 hPa | - | - | - | - |
| 1777856564 | 8.33° C | 74% | 933 hPa | - | - | - | - |
| 1777855362 | 7.78° C | 75% | 932.9 hPa | - | - | - | - |
| 1777854162 | 8.89° C | 72% | 932.9 hPa | - | - | - | - |
| 1777852961 | 9.44° C | 72% | 932.9 hPa | - | - | - | - |
| 1777851760 | 8.89° C | 72% | 933.1 hPa | - | - | - | - |
| 1777850559 | 10° C | 68% | 933 hPa | - | - | - | - |
| 1777849358 | 8.89° C | 72% | 933 hPa | - | - | - | - |
| 1777848158 | 9.44° C | 71% | 933 hPa | - | - | - | - |
| 1777846957 | 8.89° C | 75% | 933.2 hPa | - | - | - | - |
| 1777845756 | 9.44° C | 70% | 933.4 hPa | - | - | - | - |
| 1777844555 | 9.44° C | 70% | 933.6 hPa | - | - | - | - |
| 1777843355 | 8.89° C | 72% | 933.6 hPa | - | - | - | - |
| 1777842154 | 9.44° C | 68% | 933.5 hPa | - | - | - | - |
* Rain since midnight (hover to see other rain measurements)
** Current wind speed in m/s (hover to see current wind gust speed)